sensor_id;sensor_type;location;lat;lon;timestamp;P1;durP1;ratioP1;P2;durP2;ratioP2
7561;SDS011;3822;48.784;9.174;2022-08-19T00:01:54;14.77;;;10.27;;
7561;SDS011;3822;48.784;9.174;2022-08-19T00:04:24;13.87;;;10.20;;
7561;SDS011;3822;48.784;9.174;2022-08-19T00:06:58;12.77;;;10.40;;
7561;SDS011;3822;48.784;9.174;2022-08-19T00:09:31;13.73;;;10.97;;
7561;SDS011;3822;48.784;9.174;2022-08-19T00:11:58;11.97;;;9.40;;
7561;SDS011;3822;48.784;9.174;2022-08-19T00:14:26;15.67;;;10.97;;
7561;SDS011;3822;48.784;9.174;2022-08-19T00:16:57;14.90;;;10.20;;
7561;SDS011;3822;48.784;9.174;2022-08-19T00:19:23;15.37;;;10.70;;
7561;SDS011;3822;48.784;9.174;2022-08-19T00:21:50;13.30;;;10.07;;
7561;SDS011;3822;48.784;9.174;2022-08-19T00:24:17;13.73;;;10.33;;
7561;SDS011;3822;48.784;9.174;2022-08-19T00:26:44;16.63;;;11.77;;
7561;SDS011;3822;48.784;9.174;2022-08-19T00:29:12;12.60;;;10.07;;
7561;SDS011;3822;48.784;9.174;2022-08-19T00:31:41;12.63;;;9.47;;
7561;SDS011;3822;48.784;9.174;2022-08-19T00:34:09;13.27;;;10.37;;
7561;SDS011;3822;48.784;9.174;2022-08-19T00:36:37;13.60;;;10.47;;
7561;SDS011;3822;48.784;9.174;2022-08-19T00:39:05;13.07;;;10.13;;
7561;SDS011;3822;48.784;9.174;2022-08-19T00:41:32;14.20;;;11.53;;
7561;SDS011;3822;48.784;9.174;2022-08-19T00:46:34;14.07;;;11.37;;
7561;SDS011;3822;48.784;9.174;2022-08-19T00:49:49;16.30;;;10.93;;
7561;SDS011;3822;48.784;9.174;2022-08-19T00:52:07;13.80;;;10.50;;
7561;SDS011;3822;48.784;9.174;2022-08-19T00:54:41;14.00;;;10.40;;
7561;SDS011;3822;48.784;9.174;2022-08-19T00:57:12;13.90;;;10.37;;
7561;SDS011;3822;48.784;9.174;2022-08-19T00:59:47;16.07;;;10.60;;
7561;SDS011;3822;48.784;9.174;2022-08-19T01:02:20;19.07;;;11.37;;
7561;SDS011;3822;48.784;9.174;2022-08-19T01:04:47;13.10;;;10.30;;
7561;SDS011;3822;48.784;9.174;2022-08-19T01:07:13;15.53;;;11.70;;
7561;SDS011;3822;48.784;9.174;2022-08-19T01:09:40;16.40;;;11.10;;
7561;SDS011;3822;48.784;9.174;2022-08-19T01:12:07;15.00;;;11.87;;
7561;SDS011;3822;48.784;9.174;2022-08-19T01:14:34;13.90;;;10.27;;
7561;SDS011;3822;48.784;9.174;2022-08-19T01:17:05;18.13;;;11.40;;
7561;SDS011;3822;48.784;9.174;2022-08-19T01:19:37;16.37;;;11.77;;
7561;SDS011;3822;48.784;9.174;2022-08-19T01:24:49;14.20;;;10.77;;
7561;SDS011;3822;48.784;9.174;2022-08-19T01:27:17;15.20;;;11.30;;
7561;SDS011;3822;48.784;9.174;2022-08-19T01:29:45;12.80;;;9.43;;
7561;SDS011;3822;48.784;9.174;2022-08-19T01:32:12;12.27;;;10.23;;
7561;SDS011;3822;48.784;9.174;2022-08-19T01:34:41;14.17;;;11.07;;
7561;SDS011;3822;48.784;9.174;2022-08-19T01:37:12;15.43;;;12.23;;
7561;SDS011;3822;48.784;9.174;2022-08-19T01:39:41;12.10;;;10.53;;
7561;SDS011;3822;48.784;9.174;2022-08-19T01:42:09;15.83;;;10.90;;
7561;SDS011;3822;48.784;9.174;2022-08-19T01:44:39;15.53;;;12.00;;
7561;SDS011;3822;48.784;9.174;2022-08-19T01:47:07;14.63;;;10.83;;
7561;SDS011;3822;48.784;9.174;2022-08-19T01:49:35;14.27;;;11.40;;
7561;SDS011;3822;48.784;9.174;2022-08-19T01:52:02;16.70;;;11.87;;
7561;SDS011;3822;48.784;9.174;2022-08-19T01:54:30;18.40;;;10.73;;
7561;SDS011;3822;48.784;9.174;2022-08-19T01:57:03;16.60;;;12.40;;
7561;SDS011;3822;48.784;9.174;2022-08-19T01:59:34;14.20;;;11.33;;
7561;SDS011;3822;48.784;9.174;2022-08-19T02:02:02;13.47;;;11.37;;
7561;SDS011;3822;48.784;9.174;2022-08-19T02:04:33;16.37;;;12.40;;
7561;SDS011;3822;48.784;9.174;2022-08-19T02:07:00;15.63;;;12.20;;
7561;SDS011;3822;48.784;9.174;2022-08-19T02:09:27;20.63;;;12.77;;
7561;SDS011;3822;48.784;9.174;2022-08-19T02:11:54;16.93;;;12.73;;
7561;SDS011;3822;48.784;9.174;2022-08-19T02:14:21;18.17;;;12.40;;
7561;SDS011;3822;48.784;9.174;2022-08-19T02:16:47;17.50;;;12.30;;
7561;SDS011;3822;48.784;9.174;2022-08-19T02:19:14;20.23;;;13.43;;
7561;SDS011;3822;48.784;9.174;2022-08-19T02:21:40;18.53;;;13.50;;
7561;SDS011;3822;48.784;9.174;2022-08-19T02:24:09;22.50;;;13.00;;
7561;SDS011;3822;48.784;9.174;2022-08-19T02:26:36;17.50;;;13.13;;
7561;SDS011;3822;48.784;9.174;2022-08-19T02:29:02;21.57;;;14.70;;
7561;SDS011;3822;48.784;9.174;2022-08-19T02:31:29;17.80;;;12.93;;
7561;SDS011;3822;48.784;9.174;2022-08-19T02:33:56;15.50;;;12.30;;
7561;SDS011;3822;48.784;9.174;2022-08-19T02:36:23;19.17;;;13.50;;
7561;SDS011;3822;48.784;9.174;2022-08-19T02:38:51;17.27;;;13.30;;
7561;SDS011;3822;48.784;9.174;2022-08-19T02:41:20;18.07;;;13.13;;
7561;SDS011;3822;48.784;9.174;2022-08-19T02:43:59;22.37;;;15.83;;
7561;SDS011;3822;48.784;9.174;2022-08-19T02:46:29;19.67;;;13.83;;
7561;SDS011;3822;48.784;9.174;2022-08-19T02:48:59;22.10;;;14.77;;
7561;SDS011;3822;48.784;9.174;2022-08-19T02:51:32;18.67;;;14.63;;
7561;SDS011;3822;48.784;9.174;2022-08-19T02:54:03;15.73;;;12.67;;
7561;SDS011;3822;48.784;9.174;2022-08-19T02:56:31;17.53;;;13.33;;
7561;SDS011;3822;48.784;9.174;2022-08-19T02:59:00;17.83;;;14.17;;
7561;SDS011;3822;48.784;9.174;2022-08-19T03:01:29;17.60;;;14.13;;
7561;SDS011;3822;48.784;9.174;2022-08-19T03:03:59;23.03;;;14.87;;
7561;SDS011;3822;48.784;9.174;2022-08-19T03:06:28;19.47;;;13.57;;
7561;SDS011;3822;48.784;9.174;2022-08-19T03:08:55;21.50;;;15.70;;
7561;SDS011;3822;48.784;9.174;2022-08-19T03:11:25;19.27;;;13.60;;
7561;SDS011;3822;48.784;9.174;2022-08-19T03:13:57;22.63;;;16.40;;
7561;SDS011;3822;48.784;9.174;2022-08-19T03:16:26;18.13;;;14.43;;
7561;SDS011;3822;48.784;9.174;2022-08-19T03:18:56;17.47;;;13.90;;
7561;SDS011;3822;48.784;9.174;2022-08-19T03:21:26;21.80;;;15.93;;
7561;SDS011;3822;48.784;9.174;2022-08-19T03:23:56;21.57;;;15.57;;
7561;SDS011;3822;48.784;9.174;2022-08-19T03:26:28;19.83;;;14.87;;
7561;SDS011;3822;48.784;9.174;2022-08-19T03:28:55;21.97;;;15.17;;
7561;SDS011;3822;48.784;9.174;2022-08-19T03:31:23;21.50;;;17.27;;
7561;SDS011;3822;48.784;9.174;2022-08-19T03:33:52;22.73;;;16.53;;
7561;SDS011;3822;48.784;9.174;2022-08-19T03:36:20;24.60;;;16.60;;
7561;SDS011;3822;48.784;9.174;2022-08-19T03:38:51;30.30;;;17.13;;
7561;SDS011;3822;48.784;9.174;2022-08-19T03:41:23;19.83;;;15.10;;
7561;SDS011;3822;48.784;9.174;2022-08-19T03:43:54;21.90;;;15.03;;
7561;SDS011;3822;48.784;9.174;2022-08-19T03:46:28;19.87;;;14.90;;
7561;SDS011;3822;48.784;9.174;2022-08-19T03:48:58;21.20;;;16.33;;
7561;SDS011;3822;48.784;9.174;2022-08-19T03:51:31;22.63;;;16.60;;
7561;SDS011;3822;48.784;9.174;2022-08-19T03:54:02;23.53;;;17.67;;
7561;SDS011;3822;48.784;9.174;2022-08-19T03:56:33;21.77;;;15.83;;
7561;SDS011;3822;48.784;9.174;2022-08-19T03:59:03;20.83;;;15.10;;
7561;SDS011;3822;48.784;9.174;2022-08-19T04:01:36;21.00;;;15.97;;
7561;SDS011;3822;48.784;9.174;2022-08-19T04:04:02;20.67;;;14.90;;
7561;SDS011;3822;48.784;9.174;2022-08-19T04:06:31;25.33;;;17.50;;
7561;SDS011;3822;48.784;9.174;2022-08-19T04:09:01;21.60;;;17.07;;
7561;SDS011;3822;48.784;9.174;2022-08-19T04:11:31;23.77;;;15.60;;
7561;SDS011;3822;48.784;9.174;2022-08-19T04:14:06;22.10;;;17.53;;
7561;SDS011;3822;48.784;9.174;2022-08-19T04:16:34;22.63;;;15.90;;
7561;SDS011;3822;48.784;9.174;2022-08-19T04:19:02;21.00;;;16.30;;
7561;SDS011;3822;48.784;9.174;2022-08-19T04:21:30;19.87;;;16.33;;
7561;SDS011;3822;48.784;9.174;2022-08-19T04:23:57;24.90;;;17.80;;
7561;SDS011;3822;48.784;9.174;2022-08-19T04:26:25;22.30;;;15.70;;
7561;SDS011;3822;48.784;9.174;2022-08-19T04:29:00;21.00;;;16.60;;
7561;SDS011;3822;48.784;9.174;2022-08-19T04:31:31;19.43;;;14.53;;
7561;SDS011;3822;48.784;9.174;2022-08-19T04:34:02;20.27;;;16.00;;
7561;SDS011;3822;48.784;9.174;2022-08-19T04:36:34;21.70;;;13.93;;
7561;SDS011;3822;48.784;9.174;2022-08-19T04:39:03;22.17;;;17.23;;
7561;SDS011;3822;48.784;9.174;2022-08-19T04:41:42;22.47;;;17.33;;
7561;SDS011;3822;48.784;9.174;2022-08-19T04:44:29;23.40;;;15.97;;
7561;SDS011;3822;48.784;9.174;2022-08-19T04:46:58;30.03;;;16.40;;
7561;SDS011;3822;48.784;9.174;2022-08-19T04:49:26;25.90;;;17.90;;
7561;SDS011;3822;48.784;9.174;2022-08-19T04:51:53;21.60;;;15.50;;
7561;SDS011;3822;48.784;9.174;2022-08-19T04:54:21;19.43;;;15.27;;
7561;SDS011;3822;48.784;9.174;2022-08-19T04:56:51;23.57;;;15.70;;
7561;SDS011;3822;48.784;9.174;2022-08-19T04:59:21;22.00;;;17.13;;
7561;SDS011;3822;48.784;9.174;2022-08-19T05:01:48;21.60;;;16.63;;
7561;SDS011;3822;48.784;9.174;2022-08-19T05:04:17;22.80;;;16.80;;
7561;SDS011;3822;48.784;9.174;2022-08-19T05:06:45;21.90;;;16.87;;
7561;SDS011;3822;48.784;9.174;2022-08-19T05:09:14;21.10;;;16.20;;
7561;SDS011;3822;48.784;9.174;2022-08-19T05:11:41;25.40;;;18.10;;
7561;SDS011;3822;48.784;9.174;2022-08-19T05:14:09;25.30;;;16.40;;
7561;SDS011;3822;48.784;9.174;2022-08-19T05:16:38;22.60;;;16.47;;
7561;SDS011;3822;48.784;9.174;2022-08-19T05:19:05;19.27;;;14.93;;
7561;SDS011;3822;48.784;9.174;2022-08-19T05:21:50;19.23;;;15.40;;
7561;SDS011;3822;48.784;9.174;2022-08-19T05:24:37;22.27;;;15.23;;
7561;SDS011;3822;48.784;9.174;2022-08-19T05:27:03;24.53;;;17.00;;
7561;SDS011;3822;48.784;9.174;2022-08-19T05:29:31;25.47;;;17.50;;
7561;SDS011;3822;48.784;9.174;2022-08-19T05:32:00;25.50;;;17.63;;
7561;SDS011;3822;48.784;9.174;2022-08-19T05:34:30;22.47;;;17.43;;
7561;SDS011;3822;48.784;9.174;2022-08-19T05:36:58;23.20;;;16.60;;
7561;SDS011;3822;48.784;9.174;2022-08-19T05:39:28;21.53;;;16.50;;
7561;SDS011;3822;48.784;9.174;2022-08-19T05:41:59;20.90;;;15.67;;
7561;SDS011;3822;48.784;9.174;2022-08-19T05:44:30;24.73;;;18.77;;
7561;SDS011;3822;48.784;9.174;2022-08-19T05:46:59;19.40;;;14.90;;
7561;SDS011;3822;48.784;9.174;2022-08-19T05:49:30;18.67;;;14.47;;
7561;SDS011;3822;48.784;9.174;2022-08-19T05:51:58;19.27;;;15.60;;
7561;SDS011;3822;48.784;9.174;2022-08-19T05:54:30;20.60;;;16.33;;
7561;SDS011;3822;48.784;9.174;2022-08-19T05:56:57;21.40;;;17.13;;
7561;SDS011;3822;48.784;9.174;2022-08-19T05:59:23;21.17;;;15.87;;
7561;SDS011;3822;48.784;9.174;2022-08-19T06:01:51;20.80;;;16.57;;
7561;SDS011;3822;48.784;9.174;2022-08-19T06:04:21;21.00;;;15.97;;
7561;SDS011;3822;48.784;9.174;2022-08-19T06:06:48;20.67;;;16.97;;
7561;SDS011;3822;48.784;9.174;2022-08-19T06:09:18;21.53;;;16.10;;
7561;SDS011;3822;48.784;9.174;2022-08-19T06:11:48;25.13;;;16.90;;
7561;SDS011;3822;48.784;9.174;2022-08-19T06:14:27;18.63;;;15.20;;
7561;SDS011;3822;48.784;9.174;2022-08-19T06:16:56;22.70;;;15.40;;
7561;SDS011;3822;48.784;9.174;2022-08-19T06:19:25;19.10;;;15.47;;
7561;SDS011;3822;48.784;9.174;2022-08-19T06:21:53;22.93;;;15.53;;
7561;SDS011;3822;48.784;9.174;2022-08-19T06:24:21;23.17;;;16.40;;
7561;SDS011;3822;48.784;9.174;2022-08-19T06:26:51;22.43;;;16.03;;
7561;SDS011;3822;48.784;9.174;2022-08-19T06:29:21;21.83;;;16.40;;
7561;SDS011;3822;48.784;9.174;2022-08-19T06:31:50;21.17;;;16.70;;
7561;SDS011;3822;48.784;9.174;2022-08-19T06:34:20;21.97;;;16.50;;
7561;SDS011;3822;48.784;9.174;2022-08-19T06:36:47;23.70;;;17.37;;
7561;SDS011;3822;48.784;9.174;2022-08-19T06:39:18;21.23;;;16.70;;
7561;SDS011;3822;48.784;9.174;2022-08-19T06:41:48;19.03;;;15.00;;
7561;SDS011;3822;48.784;9.174;2022-08-19T06:44:19;21.70;;;16.83;;
7561;SDS011;3822;48.784;9.174;2022-08-19T06:46:49;20.80;;;17.03;;
7561;SDS011;3822;48.784;9.174;2022-08-19T06:49:16;21.80;;;15.93;;
7561;SDS011;3822;48.784;9.174;2022-08-19T06:51:44;22.27;;;16.20;;
7561;SDS011;3822;48.784;9.174;2022-08-19T06:54:16;20.23;;;16.40;;
7561;SDS011;3822;48.784;9.174;2022-08-19T06:56:44;21.37;;;16.20;;
7561;SDS011;3822;48.784;9.174;2022-08-19T06:59:12;19.43;;;15.80;;
7561;SDS011;3822;48.784;9.174;2022-08-19T07:01:44;21.77;;;16.53;;
7561;SDS011;3822;48.784;9.174;2022-08-19T07:04:18;19.40;;;15.97;;
7561;SDS011;3822;48.784;9.174;2022-08-19T07:07:03;20.80;;;15.30;;
7561;SDS011;3822;48.784;9.174;2022-08-19T07:09:38;24.43;;;17.10;;
7561;SDS011;3822;48.784;9.174;2022-08-19T07:12:09;22.90;;;16.60;;
7561;SDS011;3822;48.784;9.174;2022-08-19T07:14:41;24.57;;;17.80;;
7561;SDS011;3822;48.784;9.174;2022-08-19T07:17:09;23.00;;;18.13;;
7561;SDS011;3822;48.784;9.174;2022-08-19T07:19:37;23.03;;;16.37;;
7561;SDS011;3822;48.784;9.174;2022-08-19T07:22:05;19.60;;;14.67;;
7561;SDS011;3822;48.784;9.174;2022-08-19T07:24:34;22.70;;;16.13;;
7561;SDS011;3822;48.784;9.174;2022-08-19T07:27:03;21.00;;;15.30;;
7561;SDS011;3822;48.784;9.174;2022-08-19T07:29:32;20.90;;;15.13;;
7561;SDS011;3822;48.784;9.174;2022-08-19T07:32:00;21.70;;;16.47;;
7561;SDS011;3822;48.784;9.174;2022-08-19T07:34:29;21.07;;;15.80;;
7561;SDS011;3822;48.784;9.174;2022-08-19T07:36:58;18.07;;;13.70;;
7561;SDS011;3822;48.784;9.174;2022-08-19T07:39:26;22.83;;;15.20;;
7561;SDS011;3822;48.784;9.174;2022-08-19T07:41:57;18.70;;;15.17;;
7561;SDS011;3822;48.784;9.174;2022-08-19T07:44:27;19.33;;;14.13;;
7561;SDS011;3822;48.784;9.174;2022-08-19T07:46:55;19.33;;;15.20;;
7561;SDS011;3822;48.784;9.174;2022-08-19T07:49:23;22.17;;;16.83;;
7561;SDS011;3822;48.784;9.174;2022-08-19T07:51:51;19.10;;;14.20;;
7561;SDS011;3822;48.784;9.174;2022-08-19T07:54:30;21.63;;;14.73;;
7561;SDS011;3822;48.784;9.174;2022-08-19T07:57:00;19.87;;;15.40;;
7561;SDS011;3822;48.784;9.174;2022-08-19T07:59:27;20.80;;;15.07;;
7561;SDS011;3822;48.784;9.174;2022-08-19T08:01:54;18.40;;;12.80;;
7561;SDS011;3822;48.784;9.174;2022-08-19T08:04:22;18.93;;;13.90;;
7561;SDS011;3822;48.784;9.174;2022-08-19T08:07:08;19.10;;;15.03;;
7561;SDS011;3822;48.784;9.174;2022-08-19T08:09:53;18.17;;;13.77;;
7561;SDS011;3822;48.784;9.174;2022-08-19T08:12:22;20.30;;;14.00;;
7561;SDS011;3822;48.784;9.174;2022-08-19T08:14:55;16.60;;;12.80;;
7561;SDS011;3822;48.784;9.174;2022-08-19T08:17:27;16.60;;;14.23;;
7561;SDS011;3822;48.784;9.174;2022-08-19T08:19:55;20.27;;;12.67;;
7561;SDS011;3822;48.784;9.174;2022-08-19T08:22:23;18.03;;;12.50;;
7561;SDS011;3822;48.784;9.174;2022-08-19T08:25:11;20.47;;;14.43;;
7561;SDS011;3822;48.784;9.174;2022-08-19T08:27:42;19.07;;;13.93;;
7561;SDS011;3822;48.784;9.174;2022-08-19T08:30:13;21.87;;;16.00;;
7561;SDS011;3822;48.784;9.174;2022-08-19T08:32:43;22.83;;;15.33;;
7561;SDS011;3822;48.784;9.174;2022-08-19T08:35:12;21.60;;;16.10;;
7561;SDS011;3822;48.784;9.174;2022-08-19T08:37:42;17.43;;;14.00;;
7561;SDS011;3822;48.784;9.174;2022-08-19T08:43:11;18.30;;;13.50;;
7561;SDS011;3822;48.784;9.174;2022-08-19T08:45:59;20.80;;;13.87;;
7561;SDS011;3822;48.784;9.174;2022-08-19T08:51:21;17.63;;;15.17;;
7561;SDS011;3822;48.784;9.174;2022-08-19T08:54:02;18.97;;;14.60;;
7561;SDS011;3822;48.784;9.174;2022-08-19T08:56:32;24.33;;;15.67;;
7561;SDS011;3822;48.784;9.174;2022-08-19T08:59:04;15.53;;;13.17;;
7561;SDS011;3822;48.784;9.174;2022-08-19T09:01:48;18.90;;;14.07;;
7561;SDS011;3822;48.784;9.174;2022-08-19T09:04:15;19.33;;;14.73;;
7561;SDS011;3822;48.784;9.174;2022-08-19T09:06:46;15.87;;;13.20;;
7561;SDS011;3822;48.784;9.174;2022-08-19T09:09:43;16.27;;;13.20;;
7561;SDS011;3822;48.784;9.174;2022-08-19T09:13:17;20.73;;;13.80;;
7561;SDS011;3822;48.784;9.174;2022-08-19T09:15:25;18.53;;;13.13;;
7561;SDS011;3822;48.784;9.174;2022-08-19T09:18:01;13.80;;;11.33;;
7561;SDS011;3822;48.784;9.174;2022-08-19T09:20:29;15.70;;;12.67;;
7561;SDS011;3822;48.784;9.174;2022-08-19T09:22:57;17.27;;;13.03;;
7561;SDS011;3822;48.784;9.174;2022-08-19T09:25:24;17.40;;;12.70;;
7561;SDS011;3822;48.784;9.174;2022-08-19T09:27:51;18.00;;;13.47;;
7561;SDS011;3822;48.784;9.174;2022-08-19T09:30:21;15.50;;;12.53;;
7561;SDS011;3822;48.784;9.174;2022-08-19T09:32:54;15.40;;;12.73;;
7561;SDS011;3822;48.784;9.174;2022-08-19T09:35:22;19.33;;;13.40;;
7561;SDS011;3822;48.784;9.174;2022-08-19T09:37:51;19.93;;;12.60;;
7561;SDS011;3822;48.784;9.174;2022-08-19T09:40:18;16.80;;;11.10;;
7561;SDS011;3822;48.784;9.174;2022-08-19T09:42:46;18.00;;;11.90;;
7561;SDS011;3822;48.784;9.174;2022-08-19T09:45:17;13.37;;;11.30;;
7561;SDS011;3822;48.784;9.174;2022-08-19T09:47:47;12.17;;;10.87;;
7561;SDS011;3822;48.784;9.174;2022-08-19T09:50:16;14.50;;;11.43;;
7561;SDS011;3822;48.784;9.174;2022-08-19T09:52:44;12.70;;;9.70;;
7561;SDS011;3822;48.784;9.174;2022-08-19T09:55:12;17.10;;;10.93;;
7561;SDS011;3822;48.784;9.174;2022-08-19T09:57:39;16.50;;;11.97;;
7561;SDS011;3822;48.784;9.174;2022-08-19T10:00:06;17.73;;;10.70;;
7561;SDS011;3822;48.784;9.174;2022-08-19T10:02:35;15.37;;;11.13;;
7561;SDS011;3822;48.784;9.174;2022-08-19T10:05:02;15.53;;;10.80;;
7561;SDS011;3822;48.784;9.174;2022-08-19T10:07:46;17.03;;;9.90;;
7561;SDS011;3822;48.784;9.174;2022-08-19T10:10:13;13.93;;;11.17;;
7561;SDS011;3822;48.784;9.174;2022-08-19T10:12:40;14.17;;;11.27;;
7561;SDS011;3822;48.784;9.174;2022-08-19T10:15:06;15.10;;;10.47;;
7561;SDS011;3822;48.784;9.174;2022-08-19T10:17:34;12.53;;;10.10;;
7561;SDS011;3822;48.784;9.174;2022-08-19T10:20:00;12.23;;;9.33;;
7561;SDS011;3822;48.784;9.174;2022-08-19T10:22:29;13.93;;;10.13;;
7561;SDS011;3822;48.784;9.174;2022-08-19T10:24:56;12.10;;;10.47;;
7561;SDS011;3822;48.784;9.174;2022-08-19T10:27:23;12.27;;;10.23;;
7561;SDS011;3822;48.784;9.174;2022-08-19T10:29:49;11.83;;;8.87;;
7561;SDS011;3822;48.784;9.174;2022-08-19T10:32:16;14.17;;;10.03;;
7561;SDS011;3822;48.784;9.174;2022-08-19T10:34:42;15.17;;;9.47;;
7561;SDS011;3822;48.784;9.174;2022-08-19T10:37:09;11.40;;;9.30;;
7561;SDS011;3822;48.784;9.174;2022-08-19T10:39:35;14.00;;;10.17;;
7561;SDS011;3822;48.784;9.174;2022-08-19T10:42:05;10.57;;;8.93;;
7561;SDS011;3822;48.784;9.174;2022-08-19T10:44:33;13.27;;;9.40;;
7561;SDS011;3822;48.784;9.174;2022-08-19T10:47:01;14.23;;;8.70;;
7561;SDS011;3822;48.784;9.174;2022-08-19T10:49:29;10.30;;;7.93;;
7561;SDS011;3822;48.784;9.174;2022-08-19T10:51:57;20.50;;;9.67;;
7561;SDS011;3822;48.784;9.174;2022-08-19T10:54:42;10.40;;;7.90;;
7561;SDS011;3822;48.784;9.174;2022-08-19T10:57:30;10.67;;;8.30;;
7561;SDS011;3822;48.784;9.174;2022-08-19T10:59:57;11.00;;;8.03;;
7561;SDS011;3822;48.784;9.174;2022-08-19T11:02:23;11.80;;;8.03;;
7561;SDS011;3822;48.784;9.174;2022-08-19T11:04:50;15.10;;;8.73;;
7561;SDS011;3822;48.784;9.174;2022-08-19T11:07:17;11.00;;;7.90;;
7561;SDS011;3822;48.784;9.174;2022-08-19T11:09:43;10.43;;;7.37;;
7561;SDS011;3822;48.784;9.174;2022-08-19T11:12:12;10.60;;;8.13;;
7561;SDS011;3822;48.784;9.174;2022-08-19T11:14:39;10.13;;;8.47;;
7561;SDS011;3822;48.784;9.174;2022-08-19T11:17:06;10.30;;;7.83;;
7561;SDS011;3822;48.784;9.174;2022-08-19T11:19:33;10.80;;;7.70;;
7561;SDS011;3822;48.784;9.174;2022-08-19T11:22:01;12.07;;;8.20;;
7561;SDS011;3822;48.784;9.174;2022-08-19T11:24:28;11.43;;;7.40;;
7561;SDS011;3822;48.784;9.174;2022-08-19T11:27:00;9.97;;;6.63;;
7561;SDS011;3822;48.784;9.174;2022-08-19T11:29:35;11.37;;;8.50;;
7561;SDS011;3822;48.784;9.174;2022-08-19T11:32:06;8.73;;;6.43;;
7561;SDS011;3822;48.784;9.174;2022-08-19T11:34:36;9.40;;;6.63;;
7561;SDS011;3822;48.784;9.174;2022-08-19T11:37:03;16.10;;;8.70;;
7561;SDS011;3822;48.784;9.174;2022-08-19T11:39:32;12.83;;;7.63;;
7561;SDS011;3822;48.784;9.174;2022-08-19T11:42:01;8.40;;;7.10;;
7561;SDS011;3822;48.784;9.174;2022-08-19T11:44:28;10.63;;;6.40;;
7561;SDS011;3822;48.784;9.174;2022-08-19T11:46:56;11.30;;;7.63;;
7561;SDS011;3822;48.784;9.174;2022-08-19T11:49:23;8.80;;;6.33;;
7561;SDS011;3822;48.784;9.174;2022-08-19T11:51:49;8.20;;;6.43;;
7561;SDS011;3822;48.784;9.174;2022-08-19T11:54:16;9.20;;;6.50;;
7561;SDS011;3822;48.784;9.174;2022-08-19T11:56:43;8.50;;;6.33;;
7561;SDS011;3822;48.784;9.174;2022-08-19T11:59:11;8.43;;;6.70;;
7561;SDS011;3822;48.784;9.174;2022-08-19T12:01:38;7.70;;;6.77;;
7561;SDS011;3822;48.784;9.174;2022-08-19T12:04:06;10.63;;;7.10;;
7561;SDS011;3822;48.784;9.174;2022-08-19T12:06:33;7.40;;;6.60;;
7561;SDS011;3822;48.784;9.174;2022-08-19T12:09:01;9.20;;;6.90;;
7561;SDS011;3822;48.784;9.174;2022-08-19T12:11:33;10.27;;;6.87;;
7561;SDS011;3822;48.784;9.174;2022-08-19T12:13:59;8.00;;;6.30;;
7561;SDS011;3822;48.784;9.174;2022-08-19T12:16:27;10.43;;;7.10;;
7561;SDS011;3822;48.784;9.174;2022-08-19T12:18:56;8.90;;;6.70;;
7561;SDS011;3822;48.784;9.174;2022-08-19T12:21:25;11.83;;;8.37;;
7561;SDS011;3822;48.784;9.174;2022-08-19T12:23:56;13.17;;;7.67;;
7561;SDS011;3822;48.784;9.174;2022-08-19T12:26:25;10.33;;;7.17;;
7561;SDS011;3822;48.784;9.174;2022-08-19T12:28:53;8.00;;;6.80;;
7561;SDS011;3822;48.784;9.174;2022-08-19T12:31:20;9.50;;;6.00;;
7561;SDS011;3822;48.784;9.174;2022-08-19T12:33:47;8.80;;;6.70;;
7561;SDS011;3822;48.784;9.174;2022-08-19T12:36:15;7.97;;;6.60;;
7561;SDS011;3822;48.784;9.174;2022-08-19T12:38:43;15.30;;;6.97;;
7561;SDS011;3822;48.784;9.174;2022-08-19T12:41:12;10.60;;;7.80;;
7561;SDS011;3822;48.784;9.174;2022-08-19T12:43:43;9.23;;;7.47;;
7561;SDS011;3822;48.784;9.174;2022-08-19T12:46:10;10.13;;;7.57;;
7561;SDS011;3822;48.784;9.174;2022-08-19T12:48:37;10.50;;;7.73;;
7561;SDS011;3822;48.784;9.174;2022-08-19T12:51:08;8.10;;;7.03;;
7561;SDS011;3822;48.784;9.174;2022-08-19T12:53:38;9.60;;;6.73;;
7561;SDS011;3822;48.784;9.174;2022-08-19T12:56:05;11.37;;;8.50;;
7561;SDS011;3822;48.784;9.174;2022-08-19T12:58:34;8.03;;;7.10;;
7561;SDS011;3822;48.784;9.174;2022-08-19T13:03:55;11.90;;;8.47;;
7561;SDS011;3822;48.784;9.174;2022-08-19T13:06:22;12.97;;;7.83;;
7561;SDS011;3822;48.784;9.174;2022-08-19T13:08:48;15.23;;;8.27;;
7561;SDS011;3822;48.784;9.174;2022-08-19T13:11:16;11.77;;;7.90;;
7561;SDS011;3822;48.784;9.174;2022-08-19T13:13:46;14.20;;;8.70;;
7561;SDS011;3822;48.784;9.174;2022-08-19T13:16:16;9.53;;;7.47;;
7561;SDS011;3822;48.784;9.174;2022-08-19T13:18:44;10.10;;;7.13;;
7561;SDS011;3822;48.784;9.174;2022-08-19T13:21:13;11.17;;;7.67;;
7561;SDS011;3822;48.784;9.174;2022-08-19T13:23:40;10.43;;;7.07;;
7561;SDS011;3822;48.784;9.174;2022-08-19T13:26:08;11.67;;;8.30;;
7561;SDS011;3822;48.784;9.174;2022-08-19T13:28:37;10.40;;;7.87;;
7561;SDS011;3822;48.784;9.174;2022-08-19T13:31:25;10.07;;;7.27;;
7561;SDS011;3822;48.784;9.174;2022-08-19T13:34:12;9.43;;;7.87;;
7561;SDS011;3822;48.784;9.174;2022-08-19T13:36:39;9.80;;;7.30;;
7561;SDS011;3822;48.784;9.174;2022-08-19T13:39:06;11.07;;;8.13;;
7561;SDS011;3822;48.784;9.174;2022-08-19T13:41:35;13.37;;;9.87;;
7561;SDS011;3822;48.784;9.174;2022-08-19T13:44:03;10.70;;;8.00;;
7561;SDS011;3822;48.784;9.174;2022-08-19T13:46:32;16.40;;;8.97;;
7561;SDS011;3822;48.784;9.174;2022-08-19T13:48:58;12.80;;;10.57;;
7561;SDS011;3822;48.784;9.174;2022-08-19T13:51:25;11.10;;;9.60;;
7561;SDS011;3822;48.784;9.174;2022-08-19T13:53:52;11.03;;;9.27;;
7561;SDS011;3822;48.784;9.174;2022-08-19T13:56:19;12.63;;;9.57;;
7561;SDS011;3822;48.784;9.174;2022-08-19T13:58:46;14.97;;;11.20;;
7561;SDS011;3822;48.784;9.174;2022-08-19T14:01:12;13.80;;;11.30;;
7561;SDS011;3822;48.784;9.174;2022-08-19T14:03:46;16.70;;;12.47;;
7561;SDS011;3822;48.784;9.174;2022-08-19T14:06:13;15.40;;;10.07;;
7561;SDS011;3822;48.784;9.174;2022-08-19T14:08:40;16.50;;;11.63;;
7561;SDS011;3822;48.784;9.174;2022-08-19T14:11:07;12.93;;;10.50;;
7561;SDS011;3822;48.784;9.174;2022-08-19T14:13:35;17.50;;;13.80;;
7561;SDS011;3822;48.784;9.174;2022-08-19T14:16:05;18.97;;;13.43;;
7561;SDS011;3822;48.784;9.174;2022-08-19T14:18:37;19.07;;;13.47;;
7561;SDS011;3822;48.784;9.174;2022-08-19T14:21:05;19.10;;;12.40;;
7561;SDS011;3822;48.784;9.174;2022-08-19T14:23:32;16.57;;;13.20;;
7561;SDS011;3822;48.784;9.174;2022-08-19T14:26:09;14.20;;;11.87;;
7561;SDS011;3822;48.784;9.174;2022-08-19T14:28:39;15.57;;;12.30;;
7561;SDS011;3822;48.784;9.174;2022-08-19T14:31:14;17.17;;;13.77;;
7561;SDS011;3822;48.784;9.174;2022-08-19T14:33:47;20.27;;;13.30;;
7561;SDS011;3822;48.784;9.174;2022-08-19T14:36:16;19.67;;;12.77;;
7561;SDS011;3822;48.784;9.174;2022-08-19T14:38:45;15.03;;;12.50;;
7561;SDS011;3822;48.784;9.174;2022-08-19T14:41:19;14.50;;;11.30;;
7561;SDS011;3822;48.784;9.174;2022-08-19T14:43:48;15.07;;;12.13;;
7561;SDS011;3822;48.784;9.174;2022-08-19T14:46:18;13.90;;;11.57;;
7561;SDS011;3822;48.784;9.174;2022-08-19T14:48:48;12.87;;;10.50;;
7561;SDS011;3822;48.784;9.174;2022-08-19T14:51:15;13.60;;;10.87;;
7561;SDS011;3822;48.784;9.174;2022-08-19T14:53:42;14.70;;;11.63;;
7561;SDS011;3822;48.784;9.174;2022-08-19T14:56:10;11.70;;;9.70;;
7561;SDS011;3822;48.784;9.174;2022-08-19T14:58:40;13.97;;;10.53;;
7561;SDS011;3822;48.784;9.174;2022-08-19T15:01:09;12.13;;;10.70;;
7561;SDS011;3822;48.784;9.174;2022-08-19T15:03:51;13.83;;;10.23;;
7561;SDS011;3822;48.784;9.174;2022-08-19T15:06:21;15.33;;;11.00;;
7561;SDS011;3822;48.784;9.174;2022-08-19T15:08:49;13.60;;;10.83;;
7561;SDS011;3822;48.784;9.174;2022-08-19T15:11:17;14.90;;;9.97;;
7561;SDS011;3822;48.784;9.174;2022-08-19T15:13:48;14.40;;;12.10;;
7561;SDS011;3822;48.784;9.174;2022-08-19T15:16:16;12.33;;;10.43;;
7561;SDS011;3822;48.784;9.174;2022-08-19T15:18:43;14.20;;;11.20;;
7561;SDS011;3822;48.784;9.174;2022-08-19T15:21:13;11.10;;;8.33;;
7561;SDS011;3822;48.784;9.174;2022-08-19T15:23:44;16.63;;;10.60;;